Wellsburg, West Virginia
Current Conditions -  °F | °C
As of 11:23 AM on Friday 19 Dec 2014 (Local Time) from KHLG Reporting Station
Haze Haze  
Wind Chill: 23°   Ceiling: 1900
Heat Index: 29°   Visibility: 6mi
Dew Point: 24°   Wind: 6mph
Humidity: 82%   Direction: NA
Pressure: 30.21"   Gusts: NA
Location:  40.27°N, 80.61°W
Report Text: KHLG 191623Z VRB05KT 6SM HZ SCT011 OVC019 M02/M04 A3021 RMK AO2 T10171044
Loading
Personal Weather Stations






























Interactive Weather Map New forecast layout! Learn more

10-Day Weather Forecast

Advertisements
Track Severe Weather on mobile